• °C
  • Pobieranie danych...
wx


PRINT OUT SECTION, show »

TAF EPBC 260200Z NIL=

TAF EPCE 261700Z 2618/2703 29008KT 9999 BKN018 TEMPO 2618/2622 2000
SHSN SCT005 BKN010TCU=

TAF EPDA 261700Z 2618/2703 30010KT 9999 SCT020 BKN040 PROB30 TEMPO
2618/2621 3000 -SHSN OVC010CB =

TAF AMD EPDE 261735Z 2618/2703 CNL=

TAF EPIR 261700Z 2618/2703 27014KT 9999 BKN025 BECMG 2620/2622
33012KT 4000 SN BR BKN005 OVC010 PROB30 2618/2620 4000 SN BR
SCT005 BKN012=

TAF EPIR 312300Z NIL=

TAF EPKS 261700Z 2618/2703 28010KT 9999 BKN015
PROB30 TEMPO 2618/2620 3000 -SN BR BKN006=

TAF EPLK 261700Z 2618/2703 27012KT 9999 BKN020 OVC040
PROB30 TEMPO 2618/2703 5000 SN BKN010 OVC020=

TAF EPLY 261700Z 2618/2703 27010KT 9999 BKN027 PROB30 TEMPO 2618/2703
5000 -SN BR OVC015=

TAF EPLY 312300Z NIL=

TAF EPMB 261700Z 2618/2703 29010KT 9999 BKN025 TEMPO 2618/2703 5000
-SHSN SCT008 BKN018TCU PROB30 TEMPO 2619/2703 2000 SHSN SCT006
BKN013TCU=

TAF EPMI 261700Z 2618/2703 27010KT 6000 SCT007 BKN015
TEMPO 2618/2623 2000 SHSN BKN005 OVC010TCU
PROB30 TEMPO 2623/2703 3000 BR BKN003 =

TAF EPMM 261700Z 2618/2703 29011KT 9999 OVC012 PROB30 TEMPO 2618/2622
3000 -SN BKN005 OVC012=

TAF EPNA 260200Z NIL=

TAF EPNA 312300Z NIL=

TAF EPOK 261700Z 2618/2703 30013KT 9999 BKN020 TEMPO 2618/2703 5000
-SHRASN -SHSN BKN015CB TEMPO 2618/2703 3000 SHSN BKN010CB=

TAF EPPR 261700Z 2618/2703 27008KT 9999 BKN030 PROB30 TEMPO 2618/2703
5000 SHSN BKN014TCU=

TAF EPPR 312300Z NIL=

TAF EPPW 261700Z 2618/2703 28012KT 9999 SCT015 BKN025 TEMPO 2619/2624
-SN SCT008 BKN013 PROB30 TEMPO 2621/2624 5000 -SN BKN007=

TAF EPRA 261700Z 2618/2703 27010KT 8000 SCT014 BKN035 PROB30 TEMPO
2618/2620 5000 -SN BR BKN010=

TAF EPRA 312300Z NIL=

TAF EPSN 261700Z 2618/2703 27012KT 6000 BKN006 PROB30 2618/2703 4000
SN BR BKN004 BKN012=

TAF EPTM 261700Z 2618/2703 27010KT 9999 SCT015 BKN040
PROB30 TEMPO 2618/2621 5000 -SN BR BKN008=

TAF EPTM 312300Z NIL=



IMGW-PIB Sites